Portada
METAR-TAF:

METAR-TAF

Aeroports :

Aeroport Internacional de Xangai-Hongqiao

Xangai-Hongqiao, Xina

latitud: 31-10N, longitud: 121-26E, altitud: 7 m

Observació

L'informe es va fer fa 42 minuts, a les 04:00 UTC
Vent 6 kt del Nord, variant entre Oest/Nord-Oest i Nord/Nord-Est
Temperatura 22°C
Humitat 50%
Pressió 1017 hPa
Visibilitat 10 km o més
sense núvols per sota de 1500 mi sense presència de cumulonimbus.

METAR: ZSSS 210400Z 35003MPS 290V020 CAVOK 22/11 Q1017 NOSIG

Hora: 12:42 (04:42 UTC)

Pronòstic

L'informe es va fer fa 9 hores i 36 minuts, a les 19:06 UTC
Pronòstic vàlid del 21 a les 00 UTC al 21 a les 24 UTC
Vent 8 kt del Est/Nord-Est
Visibilitat: 5000 m
Núvols disperses a una alçada de 2000 ft
boirina

TAF: ZSSS 201906Z 2100/2124 06004MPS 5000 BR SCT020 TX24/2106Z TN15/2120Z

Observacions i pronòstics meteorològics de més de 4000 aeroports (METAR i TAF).

Les estacions disponibles són els punts grocs i vermells al mapa.

Posi el ratolí al punt desitjat per veure el nom de l'estació.

Feu clic per veure les observacions i els pronòstics meteorològics.

Per canviar el mapa: feu clic els botons verds amb una creu de color negre per apropar; al botó verd amb un guió per allunyar la imatge; o en les fletxes verdes per a mapes adjacents.


METAR-TAF: